Time;durP1;ratioP1;P1;durP2;ratioP2;P2;SDS_P1;SDS_P2;PMS_P1;PMS_P2;Temp;Humidity;BMP_temperature;BMP_pressure;BME280_temperature;BME280_humidity;BME280_pressure;Samples;Min_cycle;Max_cycle;Signal;HPM_P1;HPM_P2
2022/05/01 00:02:50;;;;;;;6.80;6.40;;;10.70;99.90;;;;;;6304817;28;20243;-52
2022/05/01 00:05:54;;;;;;;8.43;6.60;;;10.70;99.90;;;;;;6283189;28;20659;-53
2022/05/01 00:08:57;;;;;;;7.87;6.93;;;10.70;99.90;;;;;;6289896;27;20324;-53
2022/05/01 00:11:59;;;;;;;7.07;6.47;;;10.70;99.90;;;;;;6290189;28;20237;-54
2022/05/01 00:15:03;;;;;;;7.40;6.10;;;10.70;99.90;;;;;;6264923;28;20383;-53
2022/05/01 00:18:07;;;;;;;7.70;6.23;;;10.60;99.90;;;;;;6256093;28;20238;-53
2022/05/01 00:21:12;;;;;;;7.93;6.10;;;10.60;99.90;;;;;;6280538;28;20239;-52
2022/05/01 00:24:15;;;;;;;6.33;5.80;;;10.60;99.90;;;;;;6289218;28;20751;-52
2022/05/01 00:27:17;;;;;;;6.40;5.90;;;10.60;99.90;;;;;;6302852;28;20290;-53
2022/05/01 00:30:22;;;;;;;9.47;6.13;;;10.50;99.90;;;;;;6305945;28;20263;-52
2022/05/01 00:36:45;;;;;;;6.07;5.70;;;10.50;99.90;;;;;;6258462;28;20298;-52
2022/05/01 00:39:48;;;;;;;6.90;6.30;;;10.40;99.90;;;;;;6276754;28;20367;-52
2022/05/01 00:42:51;;;;;;;7.27;6.60;;;10.40;99.90;;;;;;6275347;28;20229;-53
2022/05/01 00:45:54;;;;;;;6.70;6.10;;;10.40;99.90;;;;;;6255909;28;20324;-52
2022/05/01 00:48:57;;;;;;;5.70;5.40;;;10.40;99.90;;;;;;6255239;28;20256;-52
2022/05/01 00:52:07;;;;;;;6.77;6.33;;;10.40;99.90;;;;;;6280889;28;20599;-53
2022/05/01 00:55:10;;;;;;;6.93;6.30;;;10.30;99.90;;;;;;6278948;28;20470;-52
2022/05/01 00:58:13;;;;;;;6.87;6.00;;;10.30;99.90;;;;;;6280240;28;20323;-52
2022/05/01 01:01:19;;;;;;;8.17;5.93;;;10.20;99.90;;;;;;6281534;28;20271;-52
2022/05/01 01:04:31;;;;;;;6.27;5.70;;;10.20;99.90;;;;;;6302876;28;20331;-52
2022/05/01 01:07:35;;;;;;;7.07;6.47;;;10.10;99.90;;;;;;6292553;28;20374;-53
2022/05/01 01:10:38;;;;;;;7.07;6.57;;;10.10;99.90;;;;;;6307343;28;20229;-53
2022/05/01 01:13:41;;;;;;;6.77;6.20;;;10.10;99.90;;;;;;6299846;28;20612;-53
2022/05/01 01:16:44;;;;;;;6.23;5.87;;;10.10;99.90;;;;;;6309819;28;20339;-52
2022/05/01 01:19:47;;;;;;;6.50;5.93;;;10.00;99.90;;;;;;6310891;28;20396;-53
2022/05/01 01:22:53;;;;;;;7.07;6.47;;;10.00;99.90;;;;;;6289506;28;20873;-53
2022/05/01 01:25:56;;;;;;;7.17;6.07;;;10.00;99.90;;;;;;6281606;28;20550;-50
2022/05/01 01:29:00;;;;;;;7.17;6.47;;;10.00;99.90;;;;;;6284163;28;20683;-52
2022/05/01 01:32:04;;;;;;;6.73;6.27;;;10.00;99.90;;;;;;6284938;28;20783;-53
2022/05/01 01:35:09;;;;;;;7.33;6.63;;;10.00;99.90;;;;;;6302957;28;20323;-53
2022/05/01 01:38:13;;;;;;;7.20;6.40;;;10.00;99.90;;;;;;6294328;28;20317;-52
2022/05/01 01:41:21;;;;;;;6.43;5.87;;;9.90;99.90;;;;;;6305381;28;20394;-53
2022/05/01 01:44:25;;;;;;;7.37;6.10;;;9.90;99.90;;;;;;6309676;28;20233;-53
2022/05/01 01:47:28;;;;;;;6.00;5.50;;;9.90;99.90;;;;;;6291556;28;20241;-52
2022/05/01 01:50:30;;;;;;;6.03;5.70;;;9.90;99.90;;;;;;6291741;28;20748;-52
2022/05/01 01:53:37;;;;;;;6.40;5.90;;;9.90;99.90;;;;;;6309583;28;20236;-52
2022/05/01 01:56:42;;;;;;;5.83;5.50;;;9.80;99.90;;;;;;6306426;28;20843;-54
2022/05/01 01:59:45;;;;;;;5.93;5.50;;;9.80;99.90;;;;;;6274201;28;20792;-53
2022/05/01 02:02:49;;;;;;;6.10;5.73;;;9.70;99.90;;;;;;6267914;28;20233;-52
2022/05/01 02:05:53;;;;;;;5.93;5.63;;;9.80;99.90;;;;;;6297294;28;20733;-53
2022/05/01 02:08:58;;;;;;;6.60;6.10;;;9.70;99.90;;;;;;6303076;28;20755;-53
2022/05/01 02:12:00;;;;;;;5.90;5.60;;;9.70;99.90;;;;;;6272843;28;20432;-51
2022/05/01 02:15:04;;;;;;;6.43;5.93;;;9.70;99.90;;;;;;6283346;28;20290;-52
2022/05/01 02:18:17;;;;;;;6.57;6.03;;;9.60;99.90;;;;;;6283524;28;20859;-52
2022/05/01 02:24:38;;;;;;;6.70;6.10;;;9.60;99.90;;;;;;6274907;28;20237;-52
2022/05/01 02:27:41;;;;;;;6.10;5.47;;;9.50;99.90;;;;;;6277684;28;21195;-52
2022/05/01 02:30:44;;;;;;;5.53;5.20;;;9.50;99.90;;;;;;6282724;28;20261;-52
2022/05/01 02:33:47;;;;;;;7.67;6.67;;;9.50;99.90;;;;;;6274417;28;20741;-53
2022/05/01 02:36:51;;;;;;;6.97;6.47;;;9.50;99.90;;;;;;6275286;28;20849;-52
2022/05/01 02:39:55;;;;;;;9.27;6.40;;;9.50;99.90;;;;;;6279375;28;20656;-52
2022/05/01 02:42:58;;;;;;;9.43;6.53;;;9.40;99.90;;;;;;6280682;28;20367;-53
2022/05/01 02:46:01;;;;;;;6.67;6.27;;;9.40;99.90;;;;;;6277636;28;20725;-52
2022/05/01 02:49:05;;;;;;;7.77;6.30;;;9.40;99.90;;;;;;6281090;28;20314;-52
2022/05/01 02:52:08;;;;;;;7.27;6.60;;;9.40;99.90;;;;;;6282647;28;20256;-54
2022/05/01 02:55:14;;;;;;;7.03;6.37;;;9.40;99.90;;;;;;6281838;28;20336;-52
2022/05/01 02:58:16;;;;;;;6.70;6.23;;;9.40;99.90;;;;;;6279241;28;20241;-52
2022/05/01 03:01:31;;;;;;;7.00;6.50;;;9.40;99.90;;;;;;6285426;28;20670;-52
2022/05/01 03:04:35;;;;;;;8.53;7.10;;;9.40;99.90;;;;;;6273820;28;20233;-52
2022/05/01 03:07:38;;;;;;;6.77;6.27;;;9.30;99.90;;;;;;6265151;28;20563;-52
2022/05/01 03:10:43;;;;;;;6.90;6.07;;;9.30;99.90;;;;;;6272445;28;20339;-53
2022/05/01 03:13:46;;;;;;;6.83;6.23;;;9.30;99.90;;;;;;6283420;28;20370;-52
2022/05/01 03:16:48;;;;;;;7.50;6.77;;;9.20;99.90;;;;;;6281199;28;20238;-52
2022/05/01 03:23:17;;;;;;;7.17;6.40;;;9.30;99.90;;;;;;6280667;28;20422;-52
2022/05/01 03:26:21;;;;;;;7.33;6.43;;;9.30;99.90;;;;;;6268975;28;20234;-52
2022/05/01 03:29:24;;;;;;;7.07;6.47;;;9.20;99.90;;;;;;6256013;28;20231;-52
2022/05/01 03:32:27;;;;;;;6.60;6.20;;;9.20;99.90;;;;;;6255076;28;20291;-51
2022/05/01 03:35:30;;;;;;;6.07;5.57;;;9.20;99.90;;;;;;6281491;28;20491;-52
2022/05/01 03:38:33;;;;;;;6.50;6.20;;;9.20;99.90;;;;;;6308429;28;20323;-52
2022/05/01 03:41:38;;;;;;;10.70;6.07;;;9.20;99.90;;;;;;6303836;28;20374;-53
2022/05/01 03:44:41;;;;;;;7.37;6.70;;;9.20;99.90;;;;;;6312350;28;20319;-52
2022/05/01 03:47:44;;;;;;;7.27;6.63;;;9.20;99.90;;;;;;6306534;28;20399;-51
2022/05/01 03:50:46;;;;;;;7.03;6.37;;;9.10;99.90;;;;;;6295744;28;20339;-52
2022/05/01 03:53:49;;;;;;;6.73;6.17;;;9.20;99.90;;;;;;6315621;28;20228;-53
2022/05/01 03:56:53;;;;;;;7.10;6.40;;;9.10;99.90;;;;;;6314819;28;20287;-52
2022/05/01 03:59:56;;;;;;;7.40;6.70;;;9.00;99.90;;;;;;6302013;28;20713;-54
2022/05/01 04:02:59;;;;;;;7.53;6.90;;;9.10;99.90;;;;;;6307369;28;20303;-52
2022/05/01 04:06:01;;;;;;;6.90;6.40;;;9.00;99.90;;;;;;6306113;28;20239;-52
2022/05/01 04:09:04;;;;;;;7.97;7.27;;;9.10;99.90;;;;;;6306044;28;20311;-53
2022/05/01 04:12:13;;;;;;;7.73;7.07;;;9.00;99.90;;;;;;6304685;28;20637;-52
2022/05/01 04:15:16;;;;;;;6.70;6.30;;;9.00;99.90;;;;;;6309757;28;20368;-53
2022/05/01 04:18:18;;;;;;;6.40;6.10;;;9.00;99.90;;;;;;6304078;28;20382;-53
2022/05/01 04:21:21;;;;;;;6.97;6.27;;;9.00;99.90;;;;;;6306755;28;20243;-52
2022/05/01 04:24:25;;;;;;;7.07;6.57;;;9.00;99.90;;;;;;6308138;28;20237;-53
2022/05/01 04:27:29;;;;;;;8.13;6.80;;;9.00;99.90;;;;;;6310457;28;20236;-53
2022/05/01 04:30:32;;;;;;;6.40;5.97;;;9.10;99.90;;;;;;6306205;28;20342;-54
2022/05/01 04:33:35;;;;;;;6.23;5.93;;;9.00;99.90;;;;;;6283545;28;20302;-53
2022/05/01 04:36:39;;;;;;;7.00;6.33;;;9.10;99.90;;;;;;6290892;28;20361;-53
2022/05/01 04:39:42;;;;;;;6.80;6.17;;;9.10;99.90;;;;;;6278522;28;20235;-52
2022/05/01 04:42:46;;;;;;;7.53;6.47;;;9.10;99.90;;;;;;6282712;28;20225;-52
2022/05/01 04:45:50;;;;;;;7.00;6.10;;;9.10;99.90;;;;;;6285110;28;20290;-53
2022/05/01 04:48:53;;;;;;;9.57;6.77;;;9.20;99.90;;;;;;6279377;28;20233;-53
2022/05/01 04:51:56;;;;;;;6.90;6.30;;;9.30;99.90;;;;;;6283972;28;20234;-53
2022/05/01 04:54:59;;;;;;;6.73;6.13;;;9.30;99.90;;;;;;6301808;28;20221;-52
2022/05/01 04:58:03;;;;;;;6.40;6.07;;;9.30;99.90;;;;;;6309953;28;20397;-52
2022/05/01 05:01:05;;;;;;;8.93;6.40;;;9.30;99.90;;;;;;6311632;28;20286;-52
2022/05/01 05:04:08;;;;;;;6.20;5.90;;;9.50;99.90;;;;;;6315196;28;20232;-53
2022/05/01 05:07:11;;;;;;;6.83;6.30;;;9.50;99.90;;;;;;6309427;28;20236;-53
2022/05/01 05:10:15;;;;;;;6.90;6.40;;;9.60;99.90;;;;;;6311347;27;20535;-54
2022/05/01 05:13:23;;;;;;;6.13;5.70;;;9.70;99.90;;;;;;6306504;28;20309;-53
2022/05/01 05:16:29;;;;;;;6.33;5.80;;;9.90;99.90;;;;;;6313672;27;20662;-52
2022/05/01 05:19:31;;;;;;;7.07;5.77;;;10.00;99.90;;;;;;6308327;28;20361;-52
2022/05/01 05:22:34;;;;;;;6.77;5.87;;;10.10;99.90;;;;;;6314446;28;20232;-52
2022/05/01 05:25:37;;;;;;;5.47;5.03;;;10.30;99.90;;;;;;6308411;27;20763;-52
2022/05/01 05:28:42;;;;;;;7.50;5.87;;;10.40;99.90;;;;;;6305440;28;20240;-52
2022/05/01 05:31:45;;;;;;;6.07;5.53;;;10.70;99.90;;;;;;6306905;28;20233;-53
2022/05/01 05:34:48;;;;;;;5.97;5.57;;;10.80;99.90;;;;;;6309914;28;20247;-52
2022/05/01 05:37:51;;;;;;;5.70;5.30;;;11.00;99.90;;;;;;6314355;28;20244;-54
2022/05/01 05:40:53;;;;;;;5.60;5.30;;;11.20;99.90;;;;;;6298976;28;20236;-53
2022/05/01 05:43:57;;;;;;;5.57;5.27;;;11.40;99.90;;;;;;6309475;28;20647;-53
2022/05/01 05:47:04;;;;;;;6.30;5.40;;;11.70;99.90;;;;;;6283368;28;20238;-53
2022/05/01 05:50:08;;;;;;;5.40;4.57;;;12.00;99.90;;;;;;6287569;28;20724;-53
2022/05/01 05:53:11;;;;;;;5.70;5.07;;;12.30;99.90;;;;;;6283086;28;20332;-53
2022/05/01 05:56:13;;;;;;;5.27;4.87;;;12.60;99.90;;;;;;6303161;28;20262;-54
2022/05/01 05:59:17;;;;;;;5.33;4.83;;;12.80;99.90;;;;;;6310529;28;20237;-53
2022/05/01 06:02:20;;;;;;;5.47;5.07;;;13.00;99.90;;;;;;6310159;28;20381;-53
2022/05/01 06:05:27;;;;;;;5.57;5.10;;;13.30;99.90;;;;;;6307778;28;20251;-53
2022/05/01 06:08:30;;;;;;;4.93;4.63;;;13.50;99.90;;;;;;6310221;28;20244;-62
2022/05/01 06:11:35;;;;;;;5.60;4.60;;;13.80;99.90;;;;;;6304649;28;20301;-53
2022/05/01 06:14:39;;;;;;;5.30;4.80;;;14.10;99.90;;;;;;6303985;28;20260;-53
2022/05/01 06:17:43;;;;;;;5.77;4.70;;;14.20;99.90;;;;;;6312796;27;20255;-54
2022/05/01 06:20:46;;;;;;;5.00;4.70;;;14.40;99.90;;;;;;6302698;28;20239;-53
2022/05/01 06:23:48;;;;;;;6.20;4.13;;;14.50;99.90;;;;;;6311445;28;20323;-54
2022/05/01 06:26:51;;;;;;;5.13;4.70;;;14.60;99.90;;;;;;6303234;28;20370;-53
2022/05/01 06:29:55;;;;;;;4.90;4.57;;;14.70;99.90;;;;;;6299501;28;20379;-53
2022/05/01 06:32:58;;;;;;;4.97;4.50;;;14.80;99.90;;;;;;6279037;28;20272;-54
2022/05/01 06:36:00;;;;;;;5.30;4.90;;;14.80;99.90;;;;;;6281959;28;20641;-54
2022/05/01 06:39:03;;;;;;;7.33;4.60;;;14.90;99.90;;;;;;6277611;28;20558;-52
2022/05/01 06:42:08;;;;;;;4.40;4.10;;;15.00;99.90;;;;;;6276025;28;20316;-54
2022/05/01 06:45:12;;;;;;;5.00;4.50;;;15.10;99.90;;;;;;6283338;28;20697;-54
2022/05/01 06:48:23;;;;;;;4.93;4.63;;;15.00;99.90;;;;;;6279431;28;20520;-53
2022/05/01 06:51:26;;;;;;;5.40;5.00;;;15.10;99.90;;;;;;6282887;28;20714;-53
2022/05/01 06:54:28;;;;;;;4.83;4.30;;;15.30;99.90;;;;;;6283476;28;20732;-54
2022/05/01 06:57:31;;;;;;;4.50;4.10;;;15.40;99.90;;;;;;6273891;28;20744;-53
2022/05/01 07:00:36;;;;;;;4.53;4.20;;;15.70;99.90;;;;;;6273131;28;20304;-53
2022/05/01 07:03:40;;;;;;;4.90;4.40;;;15.80;99.90;;;;;;6279297;28;20253;-53
2022/05/01 07:06:43;;;;;;;4.73;4.17;;;15.90;99.90;;;;;;6276098;28;20861;-54
2022/05/01 07:09:46;;;;;;;4.93;4.47;;;16.00;99.90;;;;;;6302158;28;20370;-53
2022/05/01 07:12:49;;;;;;;5.27;4.23;;;16.10;99.90;;;;;;6304326;27;20738;-55
2022/05/01 07:15:53;;;;;;;5.33;4.70;;;16.30;99.90;;;;;;6303735;28;20755;-53
2022/05/01 07:18:56;;;;;;;4.53;4.27;;;16.40;99.90;;;;;;6305961;28;20339;-53
2022/05/01 07:21:59;;;;;;;4.17;3.97;;;16.50;99.90;;;;;;6312170;27;20678;-54
2022/05/01 07:25:02;;;;;;;5.80;5.30;;;16.40;99.90;;;;;;6287773;28;20341;-53
2022/05/01 07:28:05;;;;;;;6.27;4.77;;;16.30;99.90;;;;;;6288873;28;20292;-53
2022/05/01 07:31:09;;;;;;;4.73;4.30;;;16.20;99.90;;;;;;6284497;28;20252;-54
2022/05/01 07:34:12;;;;;;;5.30;4.37;;;16.20;99.90;;;;;;6271452;28;20368;-53
2022/05/01 07:37:15;;;;;;;4.83;4.37;;;16.40;99.90;;;;;;6277620;28;20330;-54
2022/05/01 07:40:18;;;;;;;4.57;4.20;;;16.70;99.90;;;;;;6279341;28;20233;-53
2022/05/01 07:43:20;;;;;;;5.03;4.63;;;16.80;99.90;;;;;;6280649;28;20601;-53
2022/05/01 07:46:25;;;;;;;4.57;4.27;;;17.10;99.90;;;;;;6280484;28;20265;-53
2022/05/01 07:49:28;;;;;;;4.50;4.10;;;17.20;99.90;;;;;;6269284;28;20691;-53
2022/05/01 07:52:30;;;;;;;4.67;4.13;;;17.20;99.90;;;;;;6265395;28;20252;-53
2022/05/01 07:55:33;;;;;;;4.17;3.77;;;17.20;99.90;;;;;;6276786;28;20237;-53
2022/05/01 07:58:36;;;;;;;4.83;4.33;;;17.20;99.90;;;;;;6269027;28;20767;-53
2022/05/01 08:01:40;;;;;;;6.70;4.10;;;17.30;99.90;;;;;;6288760;27;20516;-53
2022/05/01 08:04:42;;;;;;;5.33;4.17;;;17.50;99.90;;;;;;6286550;28;20358;-53
2022/05/01 08:07:52;;;;;;;4.50;4.10;;;17.70;99.90;;;;;;6269500;28;20275;-55
2022/05/01 08:10:54;;;;;;;5.10;4.63;;;18.00;99.90;;;;;;6279022;28;20382;-53
2022/05/01 08:13:57;;;;;;;7.50;4.20;;;18.10;99.90;;;;;;6281399;28;20590;-53
2022/05/01 08:17:01;;;;;;;5.60;4.57;;;18.30;99.90;;;;;;6293236;28;20571;-54
2022/05/01 08:23:25;;;;;;;4.43;4.00;;;18.30;99.90;;;;;;6277158;28;20231;-54
2022/05/01 08:26:31;;;;;;;4.67;4.17;;;18.50;99.90;;;;;;6288596;28;20335;-54
2022/05/01 08:29:36;;;;;;;4.47;4.17;;;18.60;99.90;;;;;;6295854;27;20261;-54
2022/05/01 08:32:40;;;;;;;4.90;4.50;;;18.50;99.90;;;;;;6300111;27;20327;-54
2022/05/01 08:35:43;;;;;;;4.57;4.27;;;18.50;99.90;;;;;;6285080;28;20335;-53
2022/05/01 08:38:46;;;;;;;4.37;4.10;;;18.30;99.90;;;;;;6301424;27;20226;-53
2022/05/01 08:41:49;;;;;;;4.77;4.27;;;18.40;99.90;;;;;;6303721;27;20227;-53
2022/05/01 08:44:52;;;;;;;4.90;4.50;;;18.40;99.90;;;;;;6306681;27;20940;-54
2022/05/01 08:48:05;;;;;;;5.07;4.57;;;18.50;99.90;;;;;;6289123;28;20241;-53
2022/05/01 08:51:09;;;;;;;8.73;4.70;;;18.30;99.90;;;;;;6292600;28;20327;-52
2022/05/01 08:54:13;;;;;;;5.10;4.80;;;18.10;99.90;;;;;;6297885;28;20256;-53
2022/05/01 08:57:20;;;;;;;4.90;4.60;;;17.90;99.90;;;;;;6306569;28;20237;-53
2022/05/01 09:00:23;;;;;;;5.50;5.20;;;17.70;99.90;;;;;;6301424;28;20850;-54
2022/05/01 09:03:27;;;;;;;9.80;5.33;;;17.40;99.90;;;;;;6302509;28;20316;-53
2022/05/01 09:06:30;;;;;;;5.03;4.70;;;17.20;99.90;;;;;;6303691;28;20617;-54
2022/05/01 09:09:34;;;;;;;4.80;4.40;;;17.10;99.90;;;;;;6306184;28;20240;-54
2022/05/01 09:12:53;;;;;;;5.37;4.97;;;17.10;99.90;;;;;;6300035;28;20730;-54
2022/05/01 09:16:11;;;;;;;4.67;4.27;;;17.10;99.90;;;;;;6308184;28;20264;-53
2022/05/01 09:19:30;;;;;;;6.60;4.90;;;17.10;99.90;;;;;;6306928;28;20295;-54
2022/05/01 09:22:49;;;;;;;4.80;4.00;;;17.00;99.90;;;;;;6303174;28;20421;-53
2022/05/01 09:25:58;;;;;;;4.63;4.20;;;17.00;99.90;;;;;;6295007;28;20784;-54
2022/05/01 09:29:01;;;;;;;7.37;5.17;;;17.10;99.90;;;;;;6302160;28;20306;-53
2022/05/01 09:32:05;;;;;;;5.40;4.90;;;17.00;99.90;;;;;;6304277;28;20701;-49
2022/05/01 09:35:15;;;;;;;5.20;4.70;;;17.00;99.90;;;;;;6305224;28;20247;-53
2022/05/01 09:38:19;;;;;;;5.17;4.70;;;17.00;99.90;;;;;;6307050;28;20727;-54
2022/05/01 09:41:28;;;;;;;5.23;4.30;;;17.10;99.90;;;;;;6301087;28;20278;-53
2022/05/01 09:44:31;;;;;;;5.67;5.17;;;17.20;99.90;;;;;;6307384;28;20221;-55
2022/05/01 09:47:38;;;;;;;5.17;4.77;;;17.40;99.90;;;;;;6317425;28;20336;-54
2022/05/01 09:50:44;;;;;;;4.47;4.17;;;17.40;99.90;;;;;;6308086;27;20592;-54
2022/05/01 09:53:48;;;;;;;4.40;4.03;;;17.50;99.90;;;;;;6305659;28;20488;-52
2022/05/01 09:56:52;;;;;;;5.87;3.70;;;17.60;99.90;;;;;;6294853;28;20631;-53
2022/05/01 09:59:56;;;;;;;4.10;3.90;;;17.40;99.90;;;;;;6289849;27;20259;-54
2022/05/01 10:02:59;;;;;;;6.37;4.27;;;17.10;99.90;;;;;;6314892;27;20232;-54
2022/05/01 10:06:06;;;;;;;4.57;3.77;;;17.00;99.90;;;;;;6279053;28;20294;-54
2022/05/01 10:09:23;;;;;;;3.93;3.63;;;16.90;99.90;;;;;;6288433;28;20228;-56
2022/05/01 10:12:29;;;;;;;3.67;3.37;;;16.80;99.90;;;;;;6280465;28;20758;-55
2022/05/01 10:15:34;;;;;;;4.17;3.80;;;16.80;99.90;;;;;;6280901;28;20287;-54
2022/05/01 10:18:37;;;;;;;4.00;3.70;;;16.80;99.90;;;;;;6281661;28;20312;-53
2022/05/01 10:22:03;;;;;;;6.17;3.50;;;16.70;99.90;;;;;;6277634;28;20244;-55
2022/05/01 10:25:08;;;;;;;3.70;3.40;;;16.70;99.90;;;;;;6270126;28;20252;-54
2022/05/01 10:28:23;;;;;;;3.07;2.87;;;16.60;99.90;;;;;;6300334;28;20319;-53
2022/05/01 10:35:45;;;;;;;3.27;2.97;;;16.60;99.90;;;;;;6277908;28;20233;-55
2022/05/01 10:39:05;;;;;;;3.90;3.20;;;16.60;99.90;;;;;;6270837;28;20432;-54
2022/05/01 10:42:08;;;;;;;8.27;3.73;;;16.50;99.90;;;;;;6294763;28;20237;-56
2022/05/01 10:45:42;;;;;;;6.53;3.30;;;16.50;99.90;;;;;;6301583;28;21051;-53
2022/05/01 10:48:46;;;;;;;4.97;3.27;;;16.50;99.90;;;;;;6301133;28;20236;-53
2022/05/01 10:51:52;;;;;;;3.80;3.07;;;16.50;99.90;;;;;;6306996;28;20273;-53
2022/05/01 10:54:59;;;;;;;3.30;3.00;;;16.50;99.90;;;;;;6302499;28;20271;-54
2022/05/01 10:58:19;;;;;;;3.43;3.20;;;16.50;99.90;;;;;;6304357;28;20236;-54
2022/05/01 11:01:52;;;;;;;3.60;3.50;;;16.50;99.90;;;;;;6302839;28;20359;-54
2022/05/01 11:04:56;;;;;;;4.97;3.13;;;16.40;99.90;;;;;;6293356;28;20716;-54
2022/05/01 11:08:01;;;;;;;3.13;3.03;;;16.40;99.90;;;;;;6287388;28;20933;-54
2022/05/01 11:11:07;;;;;;;3.40;3.20;;;16.40;99.90;;;;;;6283996;28;20602;-53
2022/05/01 11:14:10;;;;;;;4.77;3.30;;;16.40;99.90;;;;;;6282003;28;20722;-53
2022/05/01 11:17:13;;;;;;;4.07;3.77;;;16.50;99.90;;;;;;6278146;28;20233;-54
2022/05/01 11:20:33;;;;;;;4.17;3.33;;;16.40;99.90;;;;;;6281232;28;20409;-54
2022/05/01 11:23:36;;;;;;;4.10;3.33;;;16.40;99.90;;;;;;6285541;28;20251;-53
2022/05/01 11:27:13;;;;;;;4.67;2.77;;;16.30;99.90;;;;;;6287917;27;20240;-53
2022/05/01 11:30:33;;;;;;;3.50;3.30;;;16.30;99.90;;;;;;6284423;28;20237;-53
2022/05/01 11:33:36;;;;;;;3.53;3.23;;;16.40;99.90;;;;;;6285875;28;20260;-54
2022/05/01 11:36:50;;;;;;;5.97;2.93;;;16.40;99.90;;;;;;6283124;28;20332;-53
2022/05/01 11:40:21;;;;;;;4.77;3.47;;;16.50;99.90;;;;;;6273894;28;20453;-54
2022/05/01 11:43:28;;;;;;;3.90;3.50;;;16.50;99.90;;;;;;6283462;28;20688;-54
2022/05/01 11:46:31;;;;;;;3.97;3.53;;;16.50;99.90;;;;;;6309885;28;20327;-53
2022/05/01 11:49:39;;;;;;;3.30;3.20;;;16.40;99.90;;;;;;6301138;28;20761;-55
2022/05/01 11:52:43;;;;;;;3.30;3.10;;;16.30;99.90;;;;;;6297379;28;20678;-53
2022/05/01 12:02:31;;;;;;;3.70;3.57;;;16.10;99.90;;;;;;6305258;28;20287;-54
2022/05/01 12:05:43;;;;;;;4.50;4.20;;;16.10;99.90;;;;;;6299635;28;20259;-53
2022/05/01 12:08:49;;;;;;;4.37;4.07;;;16.20;99.90;;;;;;6309776;28;20374;-54
2022/05/01 12:11:52;;;;;;;4.00;3.80;;;16.20;99.90;;;;;;6302251;28;20243;-52
2022/05/01 12:15:04;;;;;;;4.27;3.97;;;16.20;99.90;;;;;;6288329;28;20229;-53
2022/05/01 12:18:08;;;;;;;4.37;4.10;;;16.30;99.90;;;;;;6306511;28;20232;-53
2022/05/01 12:21:10;;;;;;;4.43;4.13;;;16.30;99.90;;;;;;6280488;28;20245;-54
2022/05/01 12:24:13;;;;;;;4.30;4.00;;;16.50;99.90;;;;;;6277437;28;20244;-54
2022/05/01 12:27:19;;;;;;;6.73;3.80;;;16.50;99.90;;;;;;6273680;28;20479;-54
2022/05/01 12:30:27;;;;;;;3.97;3.77;;;16.60;99.90;;;;;;6280339;28;20237;-53
2022/05/01 12:33:30;;;;;;;4.17;3.80;;;16.70;99.90;;;;;;6278459;28;20918;-54
2022/05/01 12:36:32;;;;;;;4.23;3.93;;;16.70;99.90;;;;;;6271289;28;20238;-54
2022/05/01 12:39:35;;;;;;;4.83;3.50;;;16.80;99.90;;;;;;6279021;28;20792;-53
2022/05/01 12:46:27;;;;;;;4.10;3.80;;;16.80;99.90;;;;;;6277962;28;20308;-53
2022/05/01 12:49:30;;;;;;;4.80;3.40;;;16.90;99.90;;;;;;6305369;28;20612;-53
2022/05/01 12:52:33;;;;;;;3.80;3.57;;;16.80;99.90;;;;;;6306959;28;20232;-54
2022/05/01 12:55:37;;;;;;;3.43;3.23;;;16.70;99.90;;;;;;6303099;28;20391;-54
2022/05/01 12:58:40;;;;;;;3.30;3.20;;;16.60;99.90;;;;;;6306737;28;20233;-53
2022/05/01 13:01:44;;;;;;;3.57;3.37;;;16.60;99.90;;;;;;6316582;27;20753;-53
2022/05/01 13:04:57;;;;;;;3.50;3.30;;;16.40;99.90;;;;;;6308471;28;20240;-52
2022/05/01 13:08:00;;;;;;;3.30;3.10;;;16.30;99.90;;;;;;6309986;28;20293;-54
2022/05/01 13:11:13;;;;;;;3.60;3.37;;;16.30;99.90;;;;;;6310808;28;20320;-55
2022/05/01 13:14:30;;;;;;;3.50;3.20;;;16.30;99.90;;;;;;6305589;28;20635;-52
2022/05/01 13:17:36;;;;;;;3.50;3.03;;;16.30;99.90;;;;;;6304232;28;20379;-54
2022/05/01 13:20:39;;;;;;;3.00;2.80;;;16.20;99.90;;;;;;6309800;28;20332;-54
2022/05/01 13:23:42;;;;;;;2.80;2.70;;;16.20;99.90;;;;;;6303907;28;20255;-55
2022/05/01 13:26:45;;;;;;;3.47;3.27;;;16.10;99.90;;;;;;6305807;28;20329;-54
2022/05/01 13:29:48;;;;;;;3.83;3.00;;;16.10;99.90;;;;;;6306900;28;20233;-54
2022/05/01 13:32:54;;;;;;;2.93;2.83;;;16.00;99.90;;;;;;6309541;28;20407;-57
2022/05/01 13:35:56;;;;;;;5.50;3.30;;;16.10;99.90;;;;;;6313178;28;20276;-51
2022/05/01 13:38:59;;;;;;;3.00;2.90;;;16.00;99.90;;;;;;6311138;28;20702;-51
2022/05/01 13:45:22;;;;;;;3.13;2.93;;;16.20;99.90;;;;;;6310377;28;20312;-53
2022/05/01 13:48:26;;;;;;;3.53;3.30;;;16.40;99.90;;;;;;6300831;28;20421;-52
2022/05/01 13:51:31;;;;;;;3.13;2.90;;;16.50;99.90;;;;;;6272795;28;20234;-53
2022/05/01 13:54:34;;;;;;;3.33;3.03;;;16.60;99.90;;;;;;6277909;28;20260;-53
2022/05/01 13:57:38;;;;;;;2.93;2.83;;;16.70;99.90;;;;;;6270364;28;20315;-53
2022/05/01 14:00:42;;;;;;;2.90;2.80;;;16.80;99.90;;;;;;6269000;28;20234;-54
2022/05/01 14:03:47;;;;;;;2.67;2.57;;;16.90;99.90;;;;;;6276815;28;20399;-51
2022/05/01 14:06:50;;;;;;;4.07;3.30;;;16.90;99.90;;;;;;6267024;28;20834;-53
2022/05/01 14:09:53;;;;;;;2.87;2.77;;;16.90;99.90;;;;;;6281586;28;20717;-52
2022/05/01 14:12:56;;;;;;;3.30;3.00;;;17.00;99.90;;;;;;6275784;28;20539;-54
2022/05/01 14:15:59;;;;;;;3.03;2.90;;;17.00;99.90;;;;;;6283881;28;20412;-52
2022/05/01 14:19:03;;;;;;;3.27;3.07;;;17.20;99.90;;;;;;6308956;28;20732;-53
2022/05/01 14:22:06;;;;;;;3.40;2.63;;;17.40;99.90;;;;;;6300318;28;20332;-53
2022/05/01 14:25:24;;;;;;;3.10;2.90;;;17.70;99.90;;;;;;6281789;28;20994;-53
2022/05/01 14:28:27;;;;;;;5.60;2.80;;;17.90;99.90;;;;;;6286372;28;20613;-53
2022/05/01 14:31:40;;;;;;;4.33;2.70;;;18.20;99.90;;;;;;6297277;27;20830;-53
2022/05/01 14:34:56;;;;;;;3.20;2.90;;;18.30;99.90;;;;;;6267363;28;20250;-53
2022/05/01 14:38:06;;;;;;;3.57;3.30;;;18.60;99.90;;;;;;6270801;28;20299;-54
2022/05/01 14:41:13;;;;;;;3.37;3.20;;;18.70;99.90;;;;;;6279240;28;20241;-52
2022/05/01 14:44:17;;;;;;;3.63;3.30;;;18.90;99.90;;;;;;6272524;28;20295;-52
2022/05/01 14:47:26;;;;;;;3.40;3.20;;;18.90;99.90;;;;;;6278096;28;20250;-54
2022/05/01 14:50:31;;;;;;;3.17;3.07;;;18.80;99.90;;;;;;6286837;28;20228;-53
2022/05/01 14:53:35;;;;;;;3.50;3.23;;;18.70;99.90;;;;;;6285921;28;20229;-52
2022/05/01 14:56:40;;;;;;;3.60;3.40;;;18.60;99.90;;;;;;6261999;28;20734;-53
2022/05/01 15:06:31;;;;;;;3.30;3.20;;;18.20;99.90;;;;;;6278389;28;20320;-53
2022/05/01 15:09:36;;;;;;;3.90;3.70;;;18.10;99.90;;;;;;6279141;28;20230;-54
2022/05/01 15:12:39;;;;;;;3.87;3.70;;;18.10;99.90;;;;;;6281592;28;20423;-52
2022/05/01 15:16:00;;;;;;;4.10;3.80;;;17.90;99.90;;;;;;6283424;28;20237;-53
2022/05/01 15:19:14;;;;;;;4.03;3.63;;;17.80;99.90;;;;;;6260471;28;20230;-54
2022/05/01 15:22:29;;;;;;;4.20;4.00;;;17.60;99.90;;;;;;6282183;28;20299;-53
2022/05/01 15:25:40;;;;;;;13.13;5.00;;;17.50;99.90;;;;;;6266403;28;20327;-55
2022/05/01 15:28:44;;;;;;;8.87;4.37;;;17.40;99.90;;;;;;6285054;28;20716;-53
2022/05/01 15:31:49;;;;;;;8.83;4.23;;;17.50;99.90;;;;;;6281060;28;20758;-53
2022/05/01 15:34:55;;;;;;;6.43;4.00;;;17.60;99.90;;;;;;6274093;28;20878;-53
2022/05/01 15:38:02;;;;;;;4.00;3.80;;;17.60;99.90;;;;;;6278492;28;20328;-53
2022/05/01 15:41:15;;;;;;;5.67;4.53;;;17.60;99.90;;;;;;6275253;28;20241;-53
2022/05/01 15:44:18;;;;;;;4.27;4.07;;;17.60;99.90;;;;;;6280997;28;20305;-53
2022/05/01 15:47:31;;;;;;;4.57;4.27;;;17.60;99.90;;;;;;6293827;28;20264;-54
2022/05/01 15:53:55;;;;;;;3.73;3.53;;;17.60;99.90;;;;;;6302905;28;20233;-53
2022/05/01 15:56:59;;;;;;;4.53;4.13;;;17.60;99.90;;;;;;6298583;28;20240;-54
2022/05/01 16:00:11;;;;;;;5.43;4.30;;;17.70;99.90;;;;;;6301842;28;20776;-54
2022/05/01 16:03:13;;;;;;;4.40;4.10;;;17.50;99.90;;;;;;6294494;28;20237;-54
2022/05/01 16:06:18;;;;;;;4.30;4.10;;;17.40;99.90;;;;;;6299593;28;20323;-53
2022/05/01 16:09:39;;;;;;;6.13;3.67;;;17.40;99.90;;;;;;6305388;28;20378;-52
2022/05/01 16:12:49;;;;;;;4.70;4.50;;;17.40;99.90;;;;;;6276384;28;20298;-54
2022/05/01 16:16:00;;;;;;;5.20;4.70;;;17.30;99.90;;;;;;6278489;28;20744;-54
2022/05/01 16:19:29;;;;;;;4.93;4.57;;;17.20;99.90;;;;;;6272017;28;20230;-52
2022/05/01 16:22:45;;;;;;;5.80;5.47;;;17.00;99.90;;;;;;6291873;28;20232;-53
2022/05/01 16:25:52;;;;;;;4.87;4.57;;;16.80;99.90;;;;;;6283291;28;20252;-55
2022/05/01 16:29:05;;;;;;;5.40;4.90;;;16.70;99.90;;;;;;6311686;27;20622;-53
2022/05/01 16:32:16;;;;;;;5.20;5.00;;;16.60;99.90;;;;;;6287084;28;20242;-53
2022/05/01 16:35:21;;;;;;;4.93;4.70;;;16.50;99.90;;;;;;6300573;27;20854;-54
2022/05/01 16:38:24;;;;;;;5.37;4.87;;;16.40;99.90;;;;;;6301988;27;20297;-53
2022/05/01 16:41:30;;;;;;;7.40;5.07;;;16.20;99.90;;;;;;6286082;28;20337;-55
2022/05/01 16:44:34;;;;;;;6.27;5.00;;;16.10;99.90;;;;;;6282338;28;20378;-54
2022/05/01 16:47:38;;;;;;;5.67;5.13;;;16.00;99.90;;;;;;6271766;28;20390;-54
2022/05/01 16:50:40;;;;;;;5.00;4.70;;;16.00;99.90;;;;;;6281413;28;20316;-54